Time;durP1;ratioP1;P1;durP2;ratioP2;P2;SDS_P1;SDS_P2;PMS_P1;PMS_P2;Temp;Humidity;BMP_temperature;BMP_pressure;BME280_temperature;BME280_humidity;BME280_pressure;Samples;Min_cycle;Max_cycle;Signal;HPM_P1;HPM_P2
2023/05/11 00:00:46;;;;;;;13.00;7.00;;;;;;;9.76;50.85;98044.69;106772;1277;23368;-78
2023/05/11 00:03:14;;;;;;;8.20;6.60;;;;;;;9.74;50.93;98036.31;106764;1277;23931;-79
2023/05/11 00:05:47;;;;;;;10.30;7.30;;;;;;;9.72;51.06;98047.17;106857;1277;25272;-79
2023/05/11 00:08:15;;;;;;;9.30;7.10;;;;;;;9.70;51.14;98045.91;106992;1277;22522;-80
2023/05/11 00:10:47;;;;;;;11.10;6.90;;;;;;;9.69;51.15;98043.11;106854;1277;22730;-79
2023/05/11 00:13:16;;;;;;;8.90;6.60;;;;;;;9.68;51.39;98042.22;106957;1274;25630;-79
2023/05/11 00:15:44;;;;;;;10.00;6.80;;;;;;;9.66;51.59;98037.88;106944;1276;22580;-79
2023/05/11 00:18:12;;;;;;;8.90;6.60;;;;;;;9.65;51.63;98037.14;106990;1276;22943;-79
2023/05/11 00:20:40;;;;;;;12.80;7.30;;;;;;;9.63;51.79;98034.23;106912;1276;22539;-79
2023/05/11 00:23:08;;;;;;;8.20;6.60;;;;;;;9.63;51.70;98034.70;106902;1276;24368;-79
2023/05/11 00:25:36;;;;;;;10.80;7.80;;;;;;;9.62;51.51;98034.31;106911;1276;22650;-79
2023/05/11 00:28:04;;;;;;;11.10;6.90;;;;;;;9.61;51.95;98034.71;106906;1272;22547;-79
2023/05/11 00:30:32;;;;;;;14.90;7.80;;;;;;;9.60;51.86;98031.23;106901;1276;22643;-80
2023/05/11 00:33:00;;;;;;;9.00;7.20;;;;;;;9.59;51.57;98031.95;106906;1276;23931;-79
2023/05/11 00:35:29;;;;;;;9.10;6.70;;;;;;;9.59;52.21;98033.77;106912;1276;24318;-80
2023/05/11 00:37:58;;;;;;;12.00;6.60;;;;;;;9.59;52.14;98030.11;106884;1276;26691;-80
2023/05/11 00:40:26;;;;;;;12.40;6.90;;;;;;;9.57;52.02;98028.63;106682;1276;22585;-83
2023/05/11 00:42:54;;;;;;;10.80;6.50;;;;;;;9.56;52.05;98031.33;107136;1276;24377;-83
2023/05/11 00:45:22;;;;;;;8.60;7.10;;;;;;;9.57;52.09;98032.40;107138;1276;22550;-79
2023/05/11 00:47:50;;;;;;;11.80;6.90;;;;;;;9.56;52.01;98032.79;106957;1276;22717;-80
2023/05/11 00:50:19;;;;;;;8.50;7.30;;;;;;;9.55;51.97;98034.50;107128;1276;25399;-81
2023/05/11 00:52:47;;;;;;;10.20;7.30;;;;;;;9.55;51.98;98035.96;107018;1276;22637;-81
2023/05/11 00:55:19;;;;;;;11.00;7.00;;;;;;;9.53;51.54;98038.79;106824;1276;22806;-81
2023/05/11 00:57:47;;;;;;;10.60;6.90;;;;;;;9.51;51.87;98035.80;106987;1276;22642;-82
2023/05/11 01:00:15;;;;;;;11.50;7.30;;;;;;;9.48;51.87;98035.24;106985;1276;24340;-81
2023/05/11 01:02:45;;;;;;;9.90;7.00;;;;;;;9.45;52.06;98038.35;107012;1272;22564;-81
2023/05/11 01:05:13;;;;;;;10.90;6.60;;;;;;;9.42;52.02;98037.85;106895;1276;24200;-80
2023/05/11 01:07:52;;;;;;;8.80;6.70;;;;;;;9.39;52.19;98037.20;106763;1269;24265;-80
2023/05/11 01:10:44;;;;;;;10.50;7.40;;;;;;;9.37;52.43;98038.29;106778;1276;25261;-79
2023/05/11 01:13:33;;;;;;;9.90;7.20;;;;;;;9.35;52.26;98036.54;106689;1276;22771;-79
2023/05/11 01:16:17;;;;;;;11.80;7.50;;;;;;;9.33;52.36;98041.17;106569;1277;24347;-79
2023/05/11 01:19:04;;;;;;;9.20;7.00;;;;;;;9.29;52.53;98042.02;106870;1276;22521;-79
2023/05/11 01:21:34;;;;;;;13.50;6.80;;;;;;;9.26;52.56;98038.04;106652;1276;24198;-79
2023/05/11 01:24:23;;;;;;;8.90;7.30;;;;;;;9.23;52.51;98040.77;106646;1276;23915;-80
2023/05/11 01:27:28;;;;;;;10.80;7.70;;;;;;;9.19;52.41;98039.41;106765;1276;22725;-80
2023/05/11 01:30:23;;;;;;;;;;;;;;;9.15;52.96;98041.77;106851;1277;24212;-80
2023/05/11 01:32:57;;;;;;;12.10;6.90;;;;;;;9.11;52.84;98040.67;106866;1276;24362;-81
2023/05/11 01:35:28;;;;;;;11.20;7.20;;;;;;;9.08;52.81;98039.46;106930;1276;22786;-80
2023/05/11 01:37:58;;;;;;;9.80;7.00;;;;;;;9.07;52.72;98036.21;107059;1276;22678;-79
2023/05/11 01:40:31;;;;;;;13.00;7.50;;;;;;;9.05;52.76;98033.42;106811;1276;22785;-79
2023/05/11 01:43:02;;;;;;;10.30;7.00;;;;;;;9.03;53.24;98036.72;106799;1276;22521;-79
2023/05/11 01:45:34;;;;;;;9.70;7.20;;;;;;;9.01;53.11;98036.48;106960;1276;22514;-80
2023/05/11 01:48:06;;;;;;;10.50;7.20;;;;;;;9.00;53.26;98037.03;107174;1276;22669;-80
2023/05/11 01:50:36;;;;;;;9.70;7.00;;;;;;;8.95;53.24;98035.35;107064;1276;22781;-80
2023/05/11 01:53:06;;;;;;;10.30;7.00;;;;;;;8.89;52.96;98035.58;106787;1276;23179;-80
2023/05/11 01:55:36;;;;;;;9.80;7.00;;;;;;;8.81;53.45;98034.91;106958;1276;22549;-79
2023/05/11 01:58:05;;;;;;;10.70;7.20;;;;;;;8.72;53.45;98036.86;106881;1276;22531;-79
2023/05/11 02:00:34;;;;;;;12.50;7.40;;;;;;;8.63;53.79;98039.48;106906;1276;25272;-79
2023/05/11 02:03:05;;;;;;;10.80;7.40;;;;;;;8.57;53.84;98042.21;106902;1270;22525;-78
2023/05/11 02:05:34;;;;;;;10.20;7.80;;;;;;;8.52;53.78;98042.73;106678;1276;22520;-78
2023/05/11 02:08:05;;;;;;;11.30;7.60;;;;;;;8.48;53.97;98044.34;106931;1253;24420;-78
2023/05/11 02:10:34;;;;;;;13.20;7.20;;;;;;;8.42;54.32;98042.60;106709;1276;22641;-78
2023/05/11 02:13:04;;;;;;;9.40;7.80;;;;;;;8.38;54.45;98046.75;106951;1276;22557;-77
2023/05/11 02:15:36;;;;;;;11.60;7.50;;;;;;;8.31;54.58;98043.46;106759;1276;22634;-78
2023/05/11 02:18:07;;;;;;;11.90;8.40;;;;;;;8.27;54.54;98045.70;106796;1276;25275;-78
2023/05/11 02:20:35;;;;;;;10.90;7.10;;;;;;;8.24;54.71;98042.50;106646;1277;22482;-78
2023/05/11 02:23:05;;;;;;;11.90;7.00;;;;;;;8.22;54.73;98045.52;106493;1276;25477;-78
2023/05/11 02:25:33;;;;;;;11.20;7.30;;;;;;;8.19;55.03;98043.87;106693;1277;24374;-78
2023/05/11 02:28:02;;;;;;;10.10;8.10;;;;;;;8.14;54.76;98044.35;106726;1276;22587;-76
2023/05/11 02:30:32;;;;;;;13.20;8.00;;;;;;;8.04;55.22;98046.23;106410;1277;25460;-78
2023/05/11 02:33:05;;;;;;;8.40;7.30;;;;;;;7.93;55.80;98047.80;106643;1276;22520;-78
2023/05/11 02:35:41;;;;;;;11.10;7.90;;;;;;;7.83;55.94;98046.36;106700;1277;25374;-78
2023/05/11 02:38:11;;;;;;;11.30;7.20;;;;;;;7.77;55.69;98046.92;106587;1276;22639;-77
2023/05/11 02:40:45;;;;;;;10.50;7.60;;;;;;;7.72;55.89;98041.63;106958;1277;22658;-77
2023/05/11 02:43:20;;;;;;;9.30;7.20;;;;;;;7.71;55.79;98041.00;106745;1276;22724;-78
2023/05/11 02:46:01;;;;;;;12.20;7.90;;;;;;;7.68;55.84;98044.88;107096;1276;22575;-77
2023/05/11 02:48:37;;;;;;;17.70;8.50;;;;;;;7.66;55.91;98042.37;107008;1270;22594;-77
2023/05/11 02:51:09;;;;;;;12.00;8.20;;;;;;;7.65;56.13;98048.76;106750;1276;22528;-79
2023/05/11 02:53:44;;;;;;;11.50;7.90;;;;;;;7.66;56.10;98048.20;106933;1276;22541;-79
2023/05/11 02:56:12;;;;;;;13.90;7.80;;;;;;;7.67;56.30;98047.45;106830;1276;25197;-78
2023/05/11 02:58:41;;;;;;;10.70;8.10;;;;;;;7.66;56.72;98047.20;106933;1276;22536;-80
2023/05/11 03:01:17;;;;;;;10.50;8.00;;;;;;;7.64;56.63;98050.37;106900;1276;22582;-79
2023/05/11 03:03:45;;;;;;;9.00;8.00;;;;;;;7.62;56.50;98048.92;106588;1276;22616;-79
2023/05/11 03:06:14;;;;;;;9.50;7.70;;;;;;;7.59;56.96;98051.68;106538;1276;25483;-77
2023/05/11 03:08:43;;;;;;;9.10;7.80;;;;;;;7.54;56.99;98049.46;106717;1276;22875;-77
2023/05/11 03:11:13;;;;;;;12.00;8.30;;;;;;;7.48;56.87;98045.29;106706;1276;24442;-78
2023/05/11 03:13:43;;;;;;;12.60;9.00;;;;;;;7.48;56.93;98045.30;106663;1276;24195;-78
2023/05/11 03:16:12;;;;;;;10.70;8.30;;;;;;;7.48;57.02;98043.26;106662;1276;24247;-79
2023/05/11 03:18:41;;;;;;;10.00;7.80;;;;;;;7.48;57.01;98049.48;106646;1276;25677;-78
2023/05/11 03:21:10;;;;;;;10.50;8.60;;;;;;;7.47;57.39;98047.50;106641;1276;25271;-80
2023/05/11 03:23:40;;;;;;;17.20;9.90;;;;;;;7.48;57.39;98046.10;106621;1277;22527;-79
2023/05/11 03:26:10;;;;;;;10.40;8.90;;;;;;;7.50;57.23;98043.67;106614;1277;26583;-78
2023/05/11 03:28:40;;;;;;;13.20;8.90;;;;;;;7.51;57.28;98046.52;106621;1276;22532;-78
2023/05/11 03:31:08;;;;;;;16.20;8.70;;;;;;;7.52;57.30;98048.11;106673;1277;24302;-78
2023/05/11 03:33:36;;;;;;;15.90;9.10;;;;;;;7.54;57.47;98049.98;106637;1276;25399;-78
2023/05/11 03:36:09;;;;;;;12.90;9.60;;;;;;;7.55;57.72;98050.58;106692;1277;23038;-78
2023/05/11 03:38:38;;;;;;;11.70;8.90;;;;;;;7.58;57.64;98051.20;106612;1276;22525;-79
2023/05/11 03:41:10;;;;;;;12.70;9.00;;;;;;;7.61;57.51;98047.00;106712;1277;22731;-78
2023/05/11 03:43:39;;;;;;;9.50;8.10;;;;;;;7.65;57.98;98046.02;106811;1276;25463;-79
2023/05/11 03:46:12;;;;;;;12.50;8.80;;;;;;;7.68;58.00;98050.23;106625;1277;24193;-79
2023/05/11 03:48:41;;;;;;;10.70;8.40;;;;;;;7.72;58.13;98048.88;106731;1276;22537;-79
2023/05/11 03:51:10;;;;;;;14.20;8.60;;;;;;;7.78;58.29;98047.08;106856;1277;22523;-79
2023/05/11 03:53:38;;;;;;;11.80;9.40;;;;;;;7.84;58.41;98049.41;106685;1276;22767;-79
2023/05/11 03:56:07;;;;;;;13.40;8.40;;;;;;;7.91;58.64;98048.02;106848;1277;22482;-81
2023/05/11 03:58:39;;;;;;;11.70;8.10;;;;;;;7.98;58.43;98047.71;106886;1276;25389;-80
2023/05/11 04:01:08;;;;;;;10.80;8.10;;;;;;;8.05;58.57;98046.23;106595;1277;22640;-78
2023/05/11 04:03:50;;;;;;;10.70;8.40;;;;;;;8.12;58.40;98047.47;106429;1276;22798;-78
2023/05/11 04:06:19;;;;;;;10.00;8.90;;;;;;;8.22;58.68;98044.23;106654;1277;22793;-78
2023/05/11 04:08:52;;;;;;;12.50;8.90;;;;;;;8.32;58.91;98051.63;106697;1270;22780;-78
2023/05/11 04:11:21;;;;;;;10.60;8.80;;;;;;;8.40;58.48;98050.36;106837;1277;25610;-78
2023/05/11 04:13:49;;;;;;;21.10;9.50;;;;;;;8.47;58.71;98054.33;106815;1269;22521;-78
2023/05/11 04:16:17;;;;;;;15.40;9.20;;;;;;;8.55;58.69;98057.23;106564;1277;24181;-79
2023/05/11 04:18:45;;;;;;;13.70;9.50;;;;;;;8.61;58.43;98057.81;106749;1276;25351;-78
2023/05/11 04:21:15;;;;;;;15.20;9.60;;;;;;;8.69;58.66;98059.30;106687;1277;22581;-78
2023/05/11 04:23:43;;;;;;;12.90;10.20;;;;;;;8.78;58.73;98061.91;106707;1276;22583;-78
2023/05/11 04:26:10;;;;;;;15.00;11.50;;;;;;;8.86;58.94;98063.02;106730;1277;22544;-81
2023/05/11 04:28:38;;;;;;;13.70;10.00;;;;;;;8.94;59.36;98063.65;106689;1276;22571;-80
2023/05/11 04:31:06;;;;;;;12.10;9.40;;;;;;;9.01;59.31;98060.98;106733;1277;22566;-80
2023/05/11 04:33:34;;;;;;;12.90;9.20;;;;;;;9.08;59.50;98058.71;106682;1277;22535;-77
2023/05/11 04:36:03;;;;;;;11.20;8.70;;;;;;;9.17;59.51;98060.77;106599;1277;22518;-78
2023/05/11 04:38:31;;;;;;;14.00;7.90;;;;;;;9.28;59.44;98060.98;106672;1277;22543;-76
2023/05/11 04:41:03;;;;;;;12.40;8.50;;;;;;;9.40;59.41;98061.70;106450;1277;22814;-79
2023/05/11 04:43:32;;;;;;;13.10;7.80;;;;;;;9.52;59.55;98058.23;106762;1277;25507;-78
2023/05/11 04:46:00;;;;;;;13.70;8.10;;;;;;;9.64;59.74;98062.11;106664;1277;22668;-79
2023/05/11 04:48:29;;;;;;;9.60;8.00;;;;;;;9.77;59.71;98064.52;106880;1277;22514;-77
2023/05/11 04:50:58;;;;;;;13.80;8.40;;;;;;;9.88;59.55;98063.41;106889;1277;22532;-78
2023/05/11 04:53:30;;;;;;;13.70;8.90;;;;;;;10.00;59.47;98065.96;106821;1275;22556;-77
2023/05/11 04:55:58;;;;;;;13.00;8.10;;;;;;;10.11;59.16;98063.64;106869;1277;24264;-77
2023/05/11 04:58:26;;;;;;;13.60;8.80;;;;;;;10.22;59.07;98064.28;106986;1277;24233;-78
2023/05/11 05:00:54;;;;;;;11.00;8.00;;;;;;;10.33;59.05;98061.30;107106;1277;25497;-78
2023/05/11 05:03:22;;;;;;;9.70;8.40;;;;;;;10.45;58.79;98062.03;106904;1275;22634;-78
2023/05/11 05:05:50;;;;;;;10.60;7.90;;;;;;;10.55;58.56;98065.06;106795;1277;22535;-77
2023/05/11 05:08:19;;;;;;;12.90;7.60;;;;;;;10.65;58.36;98066.45;106663;1277;24369;-77
2023/05/11 05:10:48;;;;;;;11.60;7.90;;;;;;;10.72;58.44;98068.48;106705;1277;22541;-77
2023/05/11 05:13:16;;;;;;;10.50;7.90;;;;;;;10.77;58.33;98067.33;106552;1266;26538;-77
2023/05/11 05:15:44;;;;;;;11.60;8.90;;;;;;;10.81;58.30;98065.31;106548;1277;25703;-77
2023/05/11 05:18:12;;;;;;;13.10;8.40;;;;;;;10.89;58.40;98065.55;106541;1277;25393;-77
2023/05/11 05:20:41;;;;;;;10.80;7.50;;;;;;;10.97;58.23;98068.98;106684;1277;22544;-77
2023/05/11 05:23:09;;;;;;;10.30;7.30;;;;;;;11.02;58.10;98067.66;106543;1277;22867;-77
2023/05/11 05:25:37;;;;;;;13.40;8.20;;;;;;;11.04;58.09;98068.75;106723;1277;22637;-77
2023/05/11 05:28:06;;;;;;;11.60;8.20;;;;;;;11.08;57.88;98069.00;106668;1277;22529;-77
2023/05/11 05:30:35;;;;;;;9.50;7.70;;;;;;;11.09;57.78;98072.08;106730;1277;25504;-77
2023/05/11 05:33:04;;;;;;;10.90;7.90;;;;;;;11.10;57.58;98070.59;106620;1277;24195;-76
2023/05/11 05:35:35;;;;;;;10.90;8.20;;;;;;;11.13;57.73;98072.47;106595;1277;22931;-78
2023/05/11 05:38:04;;;;;;;8.70;7.70;;;;;;;11.20;57.64;98071.59;106735;1277;25432;-78
2023/05/11 05:40:36;;;;;;;10.50;7.80;;;;;;;11.28;57.66;98068.40;106656;1277;22511;-78
2023/05/11 05:43:05;;;;;;;9.60;7.90;;;;;;;11.40;57.51;98071.46;106596;1277;22536;-78
2023/05/11 05:45:33;;;;;;;12.90;7.40;;;;;;;11.50;57.31;98071.34;106603;1277;24391;-76
2023/05/11 05:48:01;;;;;;;9.80;7.30;;;;;;;11.55;57.07;98071.13;106593;1277;22541;-75
2023/05/11 05:50:31;;;;;;;8.70;7.70;;;;;;;11.64;57.50;98071.05;102564;1277;5314067;-76
2023/05/11 05:52:59;;;;;;;9.60;6.50;;;;;;;11.88;57.57;98076.08;106550;1277;25472;-77
2023/05/11 05:55:29;;;;;;;11.10;7.70;;;;;;;12.30;58.32;98073.77;106577;1277;23111;-76
2023/05/11 05:57:59;;;;;;;8.60;7.10;;;;;;;12.75;57.88;98075.94;106598;1277;22940;-79
2023/05/11 06:00:27;;;;;;;17.20;7.40;;;;;;;13.17;57.79;98073.16;106649;1277;22882;-76
2023/05/11 06:03:01;;;;;;;;;;;;;;;13.36;57.41;98075.37;106599;1277;22506;-76
2023/05/11 06:05:29;;;;;;;9.50;7.70;;;;;;;13.38;57.14;98075.69;106449;1275;22631;-76
2023/05/11 06:07:57;;;;;;;11.20;7.90;;;;;;;13.35;57.04;98077.19;106404;1277;25465;-76
2023/05/11 06:10:37;;;;;;;10.10;7.30;;;;;;;13.28;56.74;98081.00;106557;1277;25615;-77
2023/05/11 06:13:07;;;;;;;10.40;6.80;;;;;;;13.30;56.79;98082.83;106643;1277;22516;-76
2023/05/11 06:15:35;;;;;;;9.70;7.20;;;;;;;13.35;55.95;98081.25;106499;1276;24112;-78
2023/05/11 06:18:10;;;;;;;14.80;7.60;;;;;;;13.32;56.03;98080.73;106774;1276;22517;-77
2023/05/11 06:20:41;;;;;;;12.10;6.80;;;;;;;13.35;56.12;98083.13;106754;1269;22637;-80
2023/05/11 06:23:09;;;;;;;8.90;6.70;;;;;;;13.48;56.16;98084.78;106704;1276;25616;-75
2023/05/11 06:25:39;;;;;;;11.10;7.30;;;;;;;13.55;55.87;98084.49;106747;1276;22610;-77
2023/05/11 06:28:07;;;;;;;16.40;8.10;;;;;;;13.65;55.83;98085.09;106749;1276;22532;-76
2023/05/11 06:30:36;;;;;;;9.40;7.20;;;;;;;13.74;55.33;98085.79;106733;1276;22646;-76
2023/05/11 06:33:06;;;;;;;12.10;6.20;;;;;;;13.87;55.17;98087.60;106724;1276;24432;-76
2023/05/11 06:35:37;;;;;;;10.70;6.30;;;;;;;14.04;55.10;98085.95;106787;1276;22618;-76
2023/05/11 06:38:07;;;;;;;8.60;6.60;;;;;;;14.15;55.06;98084.80;106855;1276;22588;-76
2023/05/11 06:40:36;;;;;;;12.60;8.00;;;;;;;14.29;54.91;98083.13;106884;1276;23154;-77
2023/05/11 06:43:04;;;;;;;8.80;6.70;;;;;;;14.38;54.73;98085.37;106673;1276;25388;-79
2023/05/11 06:45:45;;;;;;;11.10;6.70;;;;;;;14.54;54.37;98082.25;106847;1276;22519;-76
2023/05/11 06:48:14;;;;;;;9.60;6.80;;;;;;;14.64;54.19;98082.13;106800;1276;22566;-78
2023/05/11 06:50:42;;;;;;;10.00;8.00;;;;;;;14.76;54.17;98082.38;106765;1276;22528;-76
2023/05/11 06:53:12;;;;;;;9.90;5.90;;;;;;;14.91;53.78;98084.09;106757;1276;22517;-76
2023/05/11 06:55:41;;;;;;;11.70;6.90;;;;;;;14.92;53.74;98081.87;106615;1253;22735;-76
2023/05/11 06:58:09;;;;;;;8.70;5.80;;;;;;;15.04;53.42;98084.01;106488;1269;25347;-75
2023/05/11 07:00:37;;;;;;;9.70;5.60;;;;;;;15.18;53.42;98084.55;106763;1276;22518;-76
2023/05/11 07:03:05;;;;;;;8.00;5.80;;;;;;;15.29;52.84;98082.66;106779;1276;22665;-76
2023/05/11 07:05:35;;;;;;;9.50;6.00;;;;;;;15.34;52.72;98084.40;106456;1276;25367;-76
2023/05/11 07:08:04;;;;;;;7.90;5.70;;;;;;;15.37;52.39;98087.78;106767;1276;22531;-77
2023/05/11 07:10:32;;;;;;;9.30;6.30;;;;;;;15.44;52.33;98085.92;106797;1276;23965;-75
2023/05/11 07:12:59;;;;;;;11.00;6.60;;;;;;;15.46;52.47;98087.78;106525;1276;24315;-76
2023/05/11 07:15:27;;;;;;;11.20;5.90;;;;;;;15.49;52.11;98083.54;106642;1276;25396;-77
2023/05/11 07:17:55;;;;;;;8.60;5.10;;;;;;;15.51;51.74;98083.00;106753;1276;22765;-76
2023/05/11 07:20:23;;;;;;;9.20;6.10;;;;;;;15.57;51.65;98086.09;106739;1276;22676;-75
2023/05/11 07:22:55;;;;;;;10.30;6.10;;;;;;;15.57;51.61;98080.92;106769;1276;22534;-76
2023/05/11 07:25:24;;;;;;;10.90;5.70;;;;;;;15.55;51.56;98082.17;106727;1276;24360;-75
2023/05/11 07:27:52;;;;;;;8.20;6.20;;;;;;;15.61;51.90;98080.02;106790;1276;22643;-75
2023/05/11 07:30:21;;;;;;;11.60;6.40;;;;;;;15.76;51.56;98077.97;106725;1276;22535;-76
2023/05/11 07:32:49;;;;;;;11.40;6.20;;;;;;;15.76;51.43;98077.21;106730;1276;22636;-75
2023/05/11 07:35:18;;;;;;;11.70;5.70;;;;;;;15.86;51.61;98078.63;106754;1276;24468;-75
2023/05/11 07:37:49;;;;;;;11.80;6.20;;;;;;;16.00;51.06;98076.91;106719;1276;22668;-75
2023/05/11 07:40:16;;;;;;;9.70;5.60;;;;;;;16.09;50.99;98081.11;106757;1270;22538;-76
2023/05/11 07:42:45;;;;;;;16.90;6.60;;;;;;;16.24;50.51;98081.22;106763;1276;23921;-75
2023/05/11 07:45:12;;;;;;;10.60;5.70;;;;;;;16.34;50.26;98084.39;106756;1276;26950;-76
2023/05/11 07:47:40;;;;;;;8.50;5.80;;;;;;;16.42;50.35;98083.36;106764;1276;25218;-76
2023/05/11 07:50:09;;;;;;;12.40;6.50;;;;;;;16.47;49.70;98084.55;106751;1276;25214;-74
2023/05/11 07:52:37;;;;;;;8.00;6.70;;;;;;;16.56;49.74;98088.06;106835;1276;26695;-74
2023/05/11 07:55:05;;;;;;;11.50;6.20;;;;;;;16.59;49.73;98085.52;106883;1276;25459;-74
2023/05/11 07:57:33;;;;;;;18.20;8.90;;;;;;;16.69;49.55;98087.51;106766;1276;24075;-75
2023/05/11 08:00:02;;;;;;;9.20;5.70;;;;;;;16.75;49.47;98083.39;106764;1276;22530;-75
2023/05/11 08:02:38;;;;;;;10.40;5.40;;;;;;;16.85;49.46;98081.14;106666;1277;22530;-76
2023/05/11 08:05:07;;;;;;;10.00;5.10;;;;;;;16.99;48.44;98077.25;106570;1276;24212;-77
2023/05/11 08:07:35;;;;;;;8.20;4.90;;;;;;;17.11;48.16;98077.89;106738;1277;24061;-75
2023/05/11 08:10:08;;;;;;;9.40;5.10;;;;;;;17.13;47.52;98075.92;106529;1270;24441;-77
2023/05/11 08:12:37;;;;;;;9.60;5.70;;;;;;;17.15;47.51;98076.70;106792;1276;22528;-76
2023/05/11 08:15:05;;;;;;;8.70;5.30;;;;;;;17.21;47.82;98074.18;106762;1276;24209;-75
2023/05/11 08:17:33;;;;;;;11.20;6.70;;;;;;;17.29;47.51;98070.94;106439;1276;24334;-75
2023/05/11 08:20:02;;;;;;;11.30;5.10;;;;;;;17.41;46.43;98071.60;106783;1276;25469;-75
2023/05/11 08:22:30;;;;;;;6.50;4.60;;;;;;;17.48;45.55;98071.48;106737;1276;25313;-75
2023/05/11 08:24:58;;;;;;;12.80;5.10;;;;;;;17.53;45.45;98073.21;106783;1272;24638;-75
2023/05/11 08:27:26;;;;;;;9.40;5.20;;;;;;;17.61;45.84;98074.48;106717;1270;22662;-75
2023/05/11 08:29:54;;;;;;;8.30;4.90;;;;;;;17.67;45.05;98070.84;106769;1276;22514;-75
2023/05/11 08:32:22;;;;;;;9.60;5.10;;;;;;;17.77;44.90;98074.04;106794;1276;25607;-75
2023/05/11 08:34:50;;;;;;;6.30;4.30;;;;;;;17.87;44.67;98074.77;106764;1276;24326;-75
2023/05/11 08:37:18;;;;;;;8.50;4.30;;;;;;;17.96;43.61;98069.98;106768;1276;24215;-75
2023/05/11 08:39:46;;;;;;;7.00;4.30;;;;;;;18.02;43.56;98068.46;106785;1276;26621;-74
2023/05/11 08:42:16;;;;;;;8.90;3.80;;;;;;;18.11;42.73;98067.73;106788;1276;25380;-75
2023/05/11 08:44:46;;;;;;;6.30;3.30;;;;;;;18.19;42.64;98067.79;106632;1277;23154;-75
2023/05/11 08:47:16;;;;;;;5.30;3.20;;;;;;;18.28;42.62;98064.63;106629;1272;25059;-75
2023/05/11 08:49:51;;;;;;;5.30;3.30;;;;;;;18.37;41.06;98068.72;106563;1278;22520;-74
2023/05/11 08:52:20;;;;;;;8.40;3.10;;;;;;;18.42;40.32;98066.27;106583;1277;22541;-75
2023/05/11 08:54:48;;;;;;;5.70;3.20;;;;;;;18.50;40.00;98062.00;106570;1277;24413;-76
2023/05/11 08:57:16;;;;;;;5.20;3.30;;;;;;;18.65;39.68;98062.23;106546;1277;22643;-76
2023/05/11 08:59:45;;;;;;;8.10;3.70;;;;;;;18.81;39.25;98063.33;106543;1277;22789;-75
2023/05/11 09:02:16;;;;;;;6.20;3.40;;;;;;;18.86;39.41;98064.80;106546;1277;24577;-73
2023/05/11 09:04:45;;;;;;;5.70;2.90;;;;;;;18.97;39.35;98062.11;106634;1277;22657;-75
2023/05/11 09:07:17;;;;;;;6.00;3.60;;;;;;;19.02;38.86;98069.84;106664;1277;22640;-75
2023/05/11 09:09:46;;;;;;;7.60;4.00;;;;;;;19.05;38.57;98064.36;106686;1277;22679;-75
2023/05/11 09:12:15;;;;;;;8.50;3.70;;;;;;;19.12;38.45;98067.10;106697;1277;23887;-75
2023/05/11 09:14:45;;;;;;;8.20;3.60;;;;;;;19.18;38.60;98062.52;106611;1277;22632;-75
2023/05/11 09:17:13;;;;;;;7.70;3.50;;;;;;;19.25;37.96;98060.36;106529;1277;22778;-75
2023/05/11 09:20:04;;;;;;;13.20;3.50;;;;;;;19.32;36.74;98054.04;106603;1276;23080;-75
2023/05/11 09:22:33;;;;;;;9.30;3.50;;;;;;;19.37;36.56;98054.31;106808;1276;22650;-75
2023/05/11 09:25:04;;;;;;;10.40;3.90;;;;;;;19.41;35.24;98057.93;106519;1276;22527;-75
2023/05/11 09:27:33;;;;;;;8.30;2.80;;;;;;;19.45;35.61;98053.59;106813;1276;22634;-75
2023/05/11 09:30:14;;;;;;;8.00;3.20;;;;;;;19.59;35.64;98053.13;106834;1276;22644;-75
2023/05/11 09:33:01;;;;;;;6.30;3.00;;;;;;;19.77;35.30;98054.29;106794;1276;25468;-75
2023/05/11 09:35:31;;;;;;;6.00;3.30;;;;;;;19.92;34.40;98054.16;106868;1276;22524;-74
2023/05/11 09:38:09;;;;;;;5.00;2.70;;;;;;;20.03;33.40;98054.40;106625;1276;24147;-74
2023/05/11 09:40:50;;;;;;;5.40;3.10;;;;;;;20.09;34.07;98057.19;106780;1276;24080;-76
2023/05/11 09:43:19;;;;;;;3.50;2.70;;;;;;;20.15;34.04;98052.79;106853;1276;25264;-75
2023/05/11 09:45:49;;;;;;;5.20;2.80;;;;;;;20.23;33.36;98048.91;106796;1276;22635;-75
2023/05/11 09:48:20;;;;;;;9.00;2.80;;;;;;;20.26;32.28;98052.01;106781;1276;25333;-75
2023/05/11 09:50:50;;;;;;;5.60;3.20;;;;;;;20.27;32.72;98049.36;107009;1276;22634;-75
2023/05/11 09:53:18;;;;;;;6.30;3.00;;;;;;;20.29;33.18;98045.19;106564;1278;24196;-75
2023/05/11 09:55:54;;;;;;;5.80;3.20;;;;;;;20.40;33.18;98042.60;106553;1276;22566;-76
2023/05/11 09:58:22;;;;;;;14.90;4.10;;;;;;;20.45;33.04;98035.27;106889;1276;22544;-75
2023/05/11 10:00:55;;;;;;;5.30;3.30;;;;;;;20.45;33.50;98036.98;106830;1276;25205;-75
2023/05/11 10:03:25;;;;;;;5.50;2.80;;;;;;;20.56;32.84;98034.41;106811;1276;22771;-75
2023/05/11 10:06:00;;;;;;;10.70;2.70;;;;;;;20.58;32.68;98036.27;106890;1276;25256;-75
2023/05/11 10:08:33;;;;;;;9.80;3.20;;;;;;;20.60;32.58;98036.37;106991;1276;22778;-75
2023/05/11 10:11:02;;;;;;;4.30;2.60;;;;;;;20.59;32.62;98034.81;106852;1259;22798;-75
2023/05/11 10:13:31;;;;;;;7.50;3.00;;;;;;;20.57;32.19;98024.52;106670;1276;25316;-76
2023/05/11 10:16:03;;;;;;;7.50;3.10;;;;;;;20.57;31.94;98024.66;106834;1276;22619;-75
2023/05/11 10:18:32;;;;;;;10.00;2.80;;;;;;;20.58;32.29;98027.43;106860;1276;22532;-75
2023/05/11 10:21:01;;;;;;;7.50;3.00;;;;;;;20.70;32.69;98024.05;106827;1276;24212;-76
2023/05/11 10:23:30;;;;;;;6.60;3.40;;;;;;;20.85;32.24;98025.42;106815;1259;22784;-75
2023/05/11 10:25:59;;;;;;;4.90;2.70;;;;;;;20.95;32.14;98025.44;106804;1276;22942;-75
2023/05/11 10:28:29;;;;;;;8.30;2.70;;;;;;;20.99;32.12;98016.59;106863;1276;24470;-75
2023/05/11 10:30:58;;;;;;;12.10;3.50;;;;;;;21.04;31.62;98018.01;106792;1276;24190;-76
2023/05/11 10:33:27;;;;;;;7.80;3.80;;;;;;;21.09;31.30;98013.49;106797;1276;22633;-76
2023/05/11 10:35:56;;;;;;;6.60;3.20;;;;;;;21.16;31.13;98019.64;106594;1267;22648;-76
2023/05/11 10:38:24;;;;;;;5.90;3.40;;;;;;;21.21;31.45;98013.38;106792;1276;22528;-76
2023/05/11 10:41:02;;;;;;;4.50;3.10;;;;;;;21.29;31.15;98006.94;106875;1276;22532;-77
2023/05/11 10:43:45;;;;;;;14.40;3.30;;;;;;;21.33;31.57;98010.52;106786;1276;25551;-75
2023/05/11 10:46:55;;;;;;;7.10;3.60;;;;;;;21.37;32.13;98012.79;106558;1273;22663;-76
2023/05/11 10:50:01;;;;;;;10.70;3.80;;;;;;;21.24;31.79;98007.08;106770;1274;22643;-75
2023/05/11 10:52:48;;;;;;;10.60;5.20;;;;;;;21.16;31.99;98005.92;106862;1276;22792;-75
2023/05/11 10:55:38;;;;;;;8.70;4.20;;;;;;;21.15;31.93;97998.25;106853;1276;24248;-75
2023/05/11 10:58:09;;;;;;;9.10;4.00;;;;;;;21.03;32.14;97994.27;106748;1276;22759;-75
2023/05/11 11:01:19;;;;;;;6.70;3.20;;;;;;;21.05;32.23;97996.80;106863;1276;22680;-75
2023/05/11 11:03:58;;;;;;;6.00;3.40;;;;;;;21.11;32.27;97990.73;106896;1276;22540;-75
2023/05/11 11:06:27;;;;;;;5.20;3.40;;;;;;;21.15;32.31;97993.77;106863;1273;22941;-75
2023/05/11 11:08:57;;;;;;;10.10;3.70;;;;;;;21.29;32.85;97994.08;106836;1276;22639;-75
2023/05/11 11:11:35;;;;;;;8.40;3.90;;;;;;;21.48;32.52;97997.39;106886;1276;22540;-75
2023/05/11 11:14:04;;;;;;;8.50;3.40;;;;;;;21.60;32.57;97990.11;106794;1276;24452;-75
2023/05/11 11:16:33;;;;;;;10.10;3.50;;;;;;;21.68;32.44;97987.11;106880;1276;25268;-75
2023/05/11 11:19:29;;;;;;;6.20;3.10;;;;;;;21.71;32.16;97988.80;106827;1276;25472;-76
2023/05/11 11:21:59;;;;;;;8.00;3.50;;;;;;;21.90;32.34;97988.11;106754;1276;25339;-76
2023/05/11 11:24:36;;;;;;;6.10;2.70;;;;;;;21.97;32.12;97986.34;106801;1276;22795;-76
2023/05/11 11:27:05;;;;;;;9.60;3.50;;;;;;;22.08;31.87;97985.21;106822;1276;22644;-76
2023/05/11 11:29:34;;;;;;;9.00;3.50;;;;;;;22.09;31.27;97984.05;106581;1276;24100;-76
2023/05/11 11:32:26;;;;;;;8.40;3.10;;;;;;;22.12;31.47;97979.70;106834;1276;22525;-75
2023/05/11 11:34:54;;;;;;;12.50;3.50;;;;;;;22.11;31.36;97975.22;106501;1276;22655;-76
2023/05/11 11:37:23;;;;;;;6.70;3.00;;;;;;;22.08;31.29;97976.13;106779;1276;22623;-75
2023/05/11 11:39:58;;;;;;;11.40;3.20;;;;;;;22.10;31.43;97978.73;106787;1276;22572;-75
2023/05/11 11:42:41;;;;;;;8.10;3.40;;;;;;;22.19;31.35;97976.29;106822;1276;22633;-75